Time;durP1;ratioP1;P1;durP2;ratioP2;P2;SDS_P1;SDS_P2;PMS_P1;PMS_P2;Temp;Humidity;BMP_temperature;BMP_pressure;BME280_temperature;BME280_humidity;BME280_pressure;Samples;Min_cycle;Max_cycle;Signal;HPM_P1;HPM_P2
2022/04/07 00:00:44;;;;;;;11.55;3.20;;;10.10;99.90;;;;;;5064917;28;36292;-58
2022/04/07 00:03:11;;;;;;;10.98;2.83;;;10.10;99.90;;;;;;5064111;28;38001;-50
2022/04/07 00:05:42;;;;;;;16.20;3.00;;;10.10;99.90;;;;;;5064785;28;38478;-50
2022/04/07 00:08:12;;;;;;;12.93;3.08;;;10.10;99.90;;;;;;5065323;28;35445;-51
2022/04/07 00:10:39;;;;;;;14.75;2.78;;;10.10;99.90;;;;;;5065448;28;38537;-49
2022/04/07 00:13:07;;;;;;;12.15;2.58;;;10.10;99.90;;;;;;5065136;28;36901;-58
2022/04/07 00:15:34;;;;;;;12.10;2.55;;;10.10;99.90;;;;;;5065204;28;37983;-51
2022/04/07 00:18:02;;;;;;;9.80;2.25;;;10.00;99.90;;;;;;5063036;28;36167;-58
2022/04/07 00:20:30;;;;;;;10.55;1.92;;;10.00;99.90;;;;;;5063871;28;36211;-58
2022/04/07 00:22:59;;;;;;;11.38;2.63;;;10.00;99.90;;;;;;5061795;28;37793;-57
2022/04/07 00:25:26;;;;;;;9.63;1.80;;;10.00;99.90;;;;;;5062509;28;38728;-57
2022/04/07 00:27:54;;;;;;;12.05;3.10;;;9.90;99.90;;;;;;5063771;28;37972;-57
2022/04/07 00:30:22;;;;;;;9.32;2.15;;;10.00;99.90;;;;;;5064619;28;37426;-57
2022/04/07 00:32:51;;;;;;;10.20;1.58;;;10.00;99.90;;;;;;5063489;28;37057;-58
2022/04/07 00:35:18;;;;;;;11.63;2.05;;;9.90;99.90;;;;;;5065288;28;36062;-58
2022/04/07 00:37:46;;;;;;;6.97;1.90;;;9.90;99.90;;;;;;5065275;28;36169;-58
2022/04/07 00:40:15;;;;;;;16.45;2.03;;;9.90;99.90;;;;;;5065081;28;37437;-58
2022/04/07 00:42:47;;;;;;;10.82;2.15;;;9.90;99.90;;;;;;5064075;28;37573;-58
2022/04/07 00:45:18;;;;;;;13.50;2.17;;;9.90;99.90;;;;;;5064500;28;40211;-59
2022/04/07 00:47:46;;;;;;;14.18;2.15;;;9.90;99.90;;;;;;5064749;28;36922;-58
2022/04/07 00:50:16;;;;;;;11.55;2.08;;;9.90;99.90;;;;;;5064092;28;36932;-49
2022/04/07 00:52:46;;;;;;;13.90;2.75;;;9.90;99.90;;;;;;5062482;28;36960;-58
2022/04/07 00:55:15;;;;;;;16.52;2.17;;;9.90;99.90;;;;;;5063461;28;38279;-58
2022/04/07 00:57:43;;;;;;;11.75;2.58;;;10.20;99.90;;;;;;5064587;28;35404;-58
2022/04/07 01:00:13;;;;;;;13.95;2.50;;;9.90;99.90;;;;;;5063999;28;37652;-58
2022/04/07 01:02:41;;;;;;;13.20;2.28;;;9.90;99.90;;;;;;5063687;28;36647;-58
2022/04/07 01:05:13;;;;;;;13.80;2.38;;;9.90;99.90;;;;;;5064335;28;37771;-58
2022/04/07 01:07:44;;;;;;;13.87;2.90;;;9.90;99.90;;;;;;5064485;28;36763;-58
2022/04/07 01:10:11;;;;;;;14.95;2.63;;;9.90;99.90;;;;;;5063584;28;36363;-48
2022/04/07 01:12:40;;;;;;;15.02;2.97;;;9.90;99.90;;;;;;5063239;28;37924;-48
2022/04/07 01:15:09;;;;;;;16.52;2.65;;;9.90;99.90;;;;;;5063622;28;37658;-57
2022/04/07 01:17:36;;;;;;;18.25;2.65;;;9.90;99.90;;;;;;5064027;28;36748;-57
2022/04/07 01:20:05;;;;;;;16.95;3.92;;;9.80;99.90;;;;;;5064027;28;38309;-58
2022/04/07 01:22:44;;;;;;;17.13;2.70;;;9.80;99.90;;;;;;5064160;28;39515;-58
2022/04/07 01:25:13;;;;;;;15.25;3.47;;;9.80;99.90;;;;;;5064402;28;41047;-58
2022/04/07 01:27:40;;;;;;;13.15;2.47;;;9.80;99.90;;;;;;5064233;28;37279;-58
2022/04/07 01:30:09;;;;;;;18.58;3.30;;;9.80;99.90;;;;;;5064140;28;41623;-50
2022/04/07 01:32:40;;;;;;;14.10;2.38;;;9.70;99.90;;;;;;5063571;28;37705;-48
2022/04/07 01:35:09;;;;;;;8.80;1.60;;;9.60;99.90;;;;;;5064791;28;37825;-58
2022/04/07 01:37:38;;;;;;;10.07;2.00;;;9.60;99.90;;;;;;5065875;28;37738;-57
2022/04/07 01:40:08;;;;;;;10.20;2.45;;;9.50;99.90;;;;;;5068148;28;39744;-58
2022/04/07 01:42:38;;;;;;;14.10;2.70;;;9.50;99.90;;;;;;5066999;28;39570;-49
2022/04/07 01:45:08;;;;;;;14.43;2.55;;;9.50;99.90;;;;;;5067914;28;38443;-49
2022/04/07 01:47:37;;;;;;;18.88;3.70;;;9.50;99.90;;;;;;5066819;28;37032;-57
2022/04/07 01:50:07;;;;;;;15.55;3.63;;;9.40;99.90;;;;;;5068192;28;39422;-47
2022/04/07 01:52:36;;;;;;;23.52;3.67;;;9.50;99.90;;;;;;5067841;28;37208;-49
2022/04/07 01:55:04;;;;;;;17.23;3.95;;;9.50;99.90;;;;;;5067845;28;39113;-49
2022/04/07 01:57:32;;;;;;;16.98;3.70;;;9.50;99.90;;;;;;5067530;28;36570;-49
2022/04/07 02:00:05;;;;;;;18.17;3.15;;;9.50;99.90;;;;;;5067090;28;38372;-50
2022/04/07 02:02:32;;;;;;;20.83;3.60;;;9.50;99.90;;;;;;5066243;28;38869;-50
2022/04/07 02:05:08;;;;;;;19.08;3.47;;;9.60;99.90;;;;;;5065784;28;38227;-51
2022/04/07 02:07:37;;;;;;;17.25;3.45;;;9.60;99.90;;;;;;5067142;28;36357;-51
2022/04/07 02:10:08;;;;;;;18.35;3.50;;;9.50;99.90;;;;;;5067145;28;38570;-46
2022/04/07 02:12:36;;;;;;;17.92;3.83;;;9.50;99.90;;;;;;5066872;28;38288;-50
2022/04/07 02:15:06;;;;;;;18.63;3.65;;;9.50;99.90;;;;;;5066630;28;37943;-49
2022/04/07 02:17:33;;;;;;;12.25;3.00;;;9.60;99.90;;;;;;5067218;28;36221;-49
2022/04/07 02:20:02;;;;;;;22.00;3.35;;;9.60;99.90;;;;;;5067591;28;37732;-50
2022/04/07 02:22:30;;;;;;;17.65;3.15;;;9.60;99.90;;;;;;5067412;28;38347;-48
2022/04/07 02:24:58;;;;;;;17.45;3.42;;;9.50;99.90;;;;;;5066690;28;38144;-51
2022/04/07 02:27:26;;;;;;;14.50;3.42;;;9.60;99.90;;;;;;5066606;28;37757;-49
2022/04/07 02:29:53;;;;;;;21.20;3.90;;;9.60;99.90;;;;;;5067535;28;36441;-58
2022/04/07 02:32:22;;;;;;;18.40;3.60;;;9.60;99.90;;;;;;5067194;28;38231;-50
2022/04/07 02:34:50;;;;;;;25.55;4.10;;;9.60;99.90;;;;;;5066432;28;40087;-47
2022/04/07 02:37:19;;;;;;;21.17;3.25;;;9.60;99.90;;;;;;5067830;28;20162;-50
2022/04/07 02:39:46;;;;;;;23.85;5.18;;;9.60;99.90;;;;;;5067045;28;38189;-53
2022/04/07 02:42:13;;;;;;;18.33;3.50;;;9.60;99.90;;;;;;5066645;28;38102;-52
2022/04/07 02:44:41;;;;;;;25.90;4.03;;;9.70;99.90;;;;;;5066749;28;37971;-50
2022/04/07 02:47:08;;;;;;;20.40;3.20;;;9.70;99.90;;;;;;5066255;28;36584;-51
2022/04/07 02:49:39;;;;;;;24.33;4.13;;;9.70;99.90;;;;;;5065131;28;37514;-48
2022/04/07 02:52:08;;;;;;;22.50;4.53;;;9.70;99.90;;;;;;5066557;28;37091;-58
2022/04/07 02:54:35;;;;;;;24.58;3.30;;;9.70;99.90;;;;;;5066418;28;38257;-58
2022/04/07 02:57:04;;;;;;;33.13;3.97;;;9.60;99.90;;;;;;5066396;28;37010;-57
2022/04/07 02:59:32;;;;;;;17.40;3.53;;;9.60;99.90;;;;;;5065763;28;37013;-58
2022/04/07 03:02:00;;;;;;;18.92;3.25;;;9.60;99.90;;;;;;5064230;28;38562;-58
2022/04/07 03:04:27;;;;;;;16.63;3.67;;;9.60;99.90;;;;;;5064442;28;39299;-48
2022/04/07 03:06:59;;;;;;;16.50;3.92;;;9.60;99.90;;;;;;5065271;28;35462;-49
2022/04/07 03:09:26;;;;;;;16.58;3.60;;;9.60;99.90;;;;;;5065296;28;36474;-51
2022/04/07 03:11:53;;;;;;;23.83;4.45;;;9.60;99.90;;;;;;5064118;28;40196;-51
2022/04/07 03:14:22;;;;;;;20.58;3.78;;;9.60;99.90;;;;;;5065315;28;37742;-57
2022/04/07 03:16:49;;;;;;;16.80;3.95;;;9.60;99.90;;;;;;5065812;28;36799;-57
2022/04/07 03:19:17;;;;;;;16.08;3.70;;;9.60;99.90;;;;;;5066200;28;38634;-58
2022/04/07 03:21:47;;;;;;;18.02;3.72;;;9.60;99.90;;;;;;5065065;28;38262;-58
2022/04/07 03:24:16;;;;;;;20.58;3.55;;;9.60;99.90;;;;;;5065859;28;37824;-58
2022/04/07 03:26:43;;;;;;;15.20;3.25;;;9.60;99.90;;;;;;5064662;28;36566;-58
2022/04/07 03:29:11;;;;;;;14.90;3.45;;;9.60;99.90;;;;;;5066567;28;38955;-57
2022/04/07 03:31:38;;;;;;;19.67;4.70;;;9.60;99.90;;;;;;5064283;28;39754;-57
2022/04/07 03:34:06;;;;;;;15.65;4.65;;;9.60;99.90;;;;;;5064969;28;38042;-58
2022/04/07 03:36:33;;;;;;;20.38;4.22;;;9.60;99.90;;;;;;5064460;28;35394;-51
2022/04/07 03:39:01;;;;;;;18.48;4.40;;;9.60;99.90;;;;;;5063970;28;38001;-49
2022/04/07 03:41:35;;;;;;;18.10;5.45;;;9.60;99.90;;;;;;5064543;28;38138;-49
2022/04/07 03:44:03;;;;;;;17.83;3.63;;;9.60;99.90;;;;;;5064852;28;38746;-49
2022/04/07 03:46:34;;;;;;;24.33;5.05;;;9.60;99.90;;;;;;5064342;28;35278;-51
2022/04/07 03:49:01;;;;;;;19.25;3.97;;;9.60;99.90;;;;;;5065306;28;37326;-51
2022/04/07 03:51:28;;;;;;;19.00;3.40;;;9.60;99.90;;;;;;5065993;28;38264;-51
2022/04/07 03:53:56;;;;;;;28.13;4.57;;;9.60;99.90;;;;;;5065714;28;38068;-49
2022/04/07 03:56:25;;;;;;;17.55;3.40;;;9.60;99.90;;;;;;5064789;28;36834;-57
2022/04/07 03:58:55;;;;;;;18.98;3.53;;;9.70;99.90;;;;;;5066441;28;36176;-58
2022/04/07 04:01:24;;;;;;;18.10;3.17;;;9.70;99.90;;;;;;5063784;28;38043;-58
2022/04/07 04:03:51;;;;;;;16.27;3.75;;;9.70;99.90;;;;;;5065820;28;37667;-50
2022/04/07 04:06:19;;;;;;;22.05;4.22;;;9.70;99.90;;;;;;5065296;28;36543;-52
2022/04/07 04:08:49;;;;;;;16.45;3.72;;;9.70;99.90;;;;;;5065189;28;36096;-58
2022/04/07 04:11:20;;;;;;;20.88;4.80;;;9.70;99.90;;;;;;5065748;28;39138;-58
2022/04/07 04:13:48;;;;;;;21.80;4.32;;;9.70;99.90;;;;;;5066050;28;38372;-58
2022/04/07 04:16:17;;;;;;;21.95;4.68;;;9.70;99.90;;;;;;5065003;28;35622;-50
2022/04/07 04:18:44;;;;;;;27.45;4.18;;;9.70;99.90;;;;;;5065212;28;37617;-52
2022/04/07 04:21:13;;;;;;;17.17;4.53;;;9.60;99.90;;;;;;5063842;28;38115;-51
2022/04/07 04:23:41;;;;;;;19.25;3.40;;;9.60;99.90;;;;;;5064525;28;37423;-58
2022/04/07 04:26:09;;;;;;;26.00;5.03;;;9.50;99.90;;;;;;5064748;28;36718;-51
2022/04/07 04:28:36;;;;;;;21.65;4.50;;;9.50;99.90;;;;;;5065592;28;39104;-47
2022/04/07 04:31:03;;;;;;;21.58;3.90;;;9.50;99.90;;;;;;5064878;28;36996;-57
2022/04/07 04:33:32;;;;;;;22.95;3.70;;;9.50;99.90;;;;;;5064456;28;38599;-58
2022/04/07 04:36:00;;;;;;;27.77;4.00;;;9.50;99.90;;;;;;5064551;28;36124;-57
2022/04/07 04:38:27;;;;;;;24.73;4.30;;;9.50;99.90;;;;;;5064394;28;39188;-58
2022/04/07 04:40:55;;;;;;;25.50;4.40;;;9.50;99.90;;;;;;5065221;28;39343;-48
2022/04/07 04:43:25;;;;;;;26.95;5.10;;;9.50;99.90;;;;;;5066520;28;36793;-50
2022/04/07 04:45:52;;;;;;;29.17;5.72;;;9.50;99.90;;;;;;5064610;28;36700;-57
2022/04/07 04:48:20;;;;;;;28.52;4.72;;;9.50;99.90;;;;;;5065489;28;38012;-58
2022/04/07 04:50:50;;;;;;;25.40;5.10;;;9.40;99.90;;;;;;5064811;28;40388;-57
2022/04/07 04:53:17;;;;;;;25.25;4.57;;;9.40;99.90;;;;;;5064853;28;38022;-58
2022/04/07 04:55:47;;;;;;;35.25;5.63;;;9.50;99.90;;;;;;5065066;28;35410;-57
2022/04/07 04:58:15;;;;;;;26.13;4.43;;;9.40;99.90;;;;;;5065424;28;36661;-57
2022/04/07 05:00:43;;;;;;;26.73;5.50;;;9.40;99.90;;;;;;5063441;28;37898;-57
2022/04/07 05:03:11;;;;;;;26.75;4.85;;;9.30;99.90;;;;;;5063785;28;36596;-58
2022/04/07 05:05:42;;;;;;;23.88;4.88;;;9.30;99.90;;;;;;5065300;28;36395;-57
2022/04/07 05:08:11;;;;;;;27.00;5.60;;;9.30;99.90;;;;;;5064536;28;37066;-58
2022/04/07 05:10:40;;;;;;;25.38;4.80;;;9.20;99.90;;;;;;5064728;28;40502;-46
2022/04/07 05:13:07;;;;;;;32.55;5.32;;;9.30;99.90;;;;;;5064428;28;36677;-50
2022/04/07 05:15:39;;;;;;;26.58;4.65;;;9.30;99.90;;;;;;5064844;28;39323;-48
2022/04/07 05:18:07;;;;;;;19.05;4.72;;;9.20;99.90;;;;;;5065388;28;36155;-49
2022/04/07 05:20:35;;;;;;;17.20;3.50;;;9.30;99.90;;;;;;5064340;28;39065;-49
2022/04/07 05:23:03;;;;;;;16.83;2.88;;;9.20;99.90;;;;;;5064440;28;37508;-50
2022/04/07 05:25:31;;;;;;;17.40;2.70;;;9.10;99.90;;;;;;5064858;28;35781;-49
2022/04/07 05:27:59;;;;;;;9.32;1.70;;;9.00;99.90;;;;;;5065118;28;36159;-47
2022/04/07 05:30:28;;;;;;;17.00;2.10;;;8.90;99.90;;;;;;5064092;28;38852;-47
2022/04/07 05:32:55;;;;;;;10.10;1.52;;;8.70;99.90;;;;;;5063729;28;36683;-48
2022/04/07 05:35:26;;;;;;;11.88;2.17;;;8.40;99.90;;;;;;5063978;28;36663;-47
2022/04/07 05:37:58;;;;;;;8.63;1.63;;;8.30;99.90;;;;;;5064084;28;38039;-49
2022/04/07 05:40:26;;;;;;;8.43;1.63;;;8.20;99.90;;;;;;5064317;28;38075;-48
2022/04/07 05:42:55;;;;;;;9.73;1.92;;;8.10;99.90;;;;;;5064267;28;38922;-48
2022/04/07 05:45:23;;;;;;;12.02;1.98;;;8.10;99.90;;;;;;5064508;28;36403;-49
2022/04/07 05:47:50;;;;;;;10.98;1.90;;;8.00;99.90;;;;;;5065208;28;38781;-48
2022/04/07 05:50:18;;;;;;;8.55;1.80;;;7.90;99.90;;;;;;5064544;28;38468;-49
2022/04/07 05:52:45;;;;;;;10.27;2.00;;;7.90;99.90;;;;;;5064026;28;39477;-48
2022/04/07 05:55:13;;;;;;;6.00;1.73;;;7.80;99.90;;;;;;5062960;28;36439;-50
2022/04/07 05:57:40;;;;;;;9.52;1.70;;;7.80;99.90;;;;;;5063677;28;36313;-47
2022/04/07 06:00:13;;;;;;;5.55;1.10;;;7.70;99.90;;;;;;5061692;28;37500;-48
2022/04/07 06:02:41;;;;;;;4.30;1.13;;;7.70;99.90;;;;;;5063728;28;36546;-50
2022/04/07 06:05:10;;;;;;;10.15;2.05;;;7.90;99.90;;;;;;5063336;28;36754;-46
2022/04/07 06:07:38;;;;;;;9.15;1.98;;;7.60;99.90;;;;;;5063181;28;38403;-48
2022/04/07 06:10:06;;;;;;;7.75;1.50;;;7.60;99.90;;;;;;5063203;28;37991;-47
2022/04/07 06:12:34;;;;;;;7.47;1.65;;;7.50;99.90;;;;;;5063567;28;36681;-47
2022/04/07 06:15:04;;;;;;;9.85;1.55;;;7.40;99.90;;;;;;5064396;28;37333;-47
2022/04/07 06:17:38;;;;;;;9.93;1.67;;;7.30;99.90;;;;;;5063631;28;38681;-49
2022/04/07 06:20:10;;;;;;;7.05;1.20;;;7.30;99.90;;;;;;5063135;28;37107;-48
2022/04/07 06:22:37;;;;;;;5.07;0.90;;;7.20;99.90;;;;;;5062093;28;36725;-49
2022/04/07 06:25:06;;;;;;;4.90;1.63;;;6.90;99.90;;;;;;5064492;28;36792;-49
2022/04/07 06:27:36;;;;;;;5.30;0.98;;;7.10;99.90;;;;;;5065813;28;37701;-50
2022/04/07 06:30:05;;;;;;;5.78;1.00;;;7.00;99.90;;;;;;5065273;28;39301;-49
2022/04/07 06:32:33;;;;;;;5.57;0.70;;;6.90;99.90;;;;;;5065480;28;38907;-49
2022/04/07 06:35:02;;;;;;;5.00;1.13;;;6.90;99.90;;;;;;5067396;28;35586;-50
2022/04/07 06:37:29;;;;;;;4.15;0.90;;;6.90;99.90;;;;;;5067196;28;37762;-47
2022/04/07 06:40:02;;;;;;;4.18;1.10;;;6.90;99.90;;;;;;5067138;28;36991;-50
2022/04/07 06:42:30;;;;;;;2.17;0.80;;;6.90;99.90;;;;;;5066433;28;37076;-49
2022/04/07 06:44:58;;;;;;;4.10;0.77;;;6.90;99.90;;;;;;5066639;28;37462;-49
2022/04/07 06:47:26;;;;;;;3.33;0.63;;;6.90;99.90;;;;;;5067202;28;36560;-56
2022/04/07 06:49:54;;;;;;;6.97;1.05;;;6.90;99.90;;;;;;5067545;28;37290;-57
2022/04/07 06:52:23;;;;;;;5.95;1.30;;;6.90;99.90;;;;;;5067489;28;37087;-56
2022/04/07 06:54:50;;;;;;;5.20;1.00;;;6.80;99.90;;;;;;5066458;28;39078;-57
2022/04/07 06:57:17;;;;;;;2.60;0.60;;;6.90;99.90;;;;;;5068117;28;37433;-57
2022/04/07 06:59:45;;;;;;;7.97;1.45;;;6.90;99.90;;;;;;5066949;28;36832;-57
2022/04/07 07:02:12;;;;;;;6.47;1.05;;;6.90;99.90;;;;;;5066913;28;39145;-57
2022/04/07 07:04:39;;;;;;;6.47;0.80;;;7.00;99.90;;;;;;5066309;28;37005;-57
2022/04/07 07:07:07;;;;;;;5.95;1.38;;;7.00;99.90;;;;;;5068526;28;38720;-57
2022/04/07 07:09:35;;;;;;;5.50;1.55;;;7.00;99.90;;;;;;5067198;28;38270;-57
2022/04/07 07:12:03;;;;;;;6.07;0.80;;;7.10;99.90;;;;;;5058390;28;38717;-56
2022/04/07 07:14:31;;;;;;;4.53;0.80;;;7.00;99.90;;;;;;5061388;28;36378;-57
2022/04/07 07:16:59;;;;;;;7.40;1.15;;;7.00;99.90;;;;;;5062788;28;37659;-57
2022/04/07 07:19:28;;;;;;;7.65;1.02;;;7.10;99.90;;;;;;5052183;28;37788;-57
2022/04/07 07:21:56;;;;;;;5.00;0.65;;;7.10;99.90;;;;;;5055232;28;37483;-50
2022/04/07 07:24:23;;;;;;;4.32;0.80;;;7.10;99.90;;;;;;5061638;28;36564;-48
2022/04/07 07:26:52;;;;;;;2.90;0.73;;;7.10;99.90;;;;;;5061738;28;37325;-49
2022/04/07 07:29:20;;;;;;;2.15;0.65;;;7.20;99.90;;;;;;5061392;28;38369;-49
2022/04/07 07:31:47;;;;;;;6.20;0.70;;;7.20;99.90;;;;;;5063357;28;38007;-47
2022/04/07 07:34:18;;;;;;;4.00;0.95;;;7.20;99.90;;;;;;5063588;28;37021;-51
2022/04/07 07:36:45;;;;;;;6.00;1.23;;;7.30;99.90;;;;;;5064808;28;38077;-49
2022/04/07 07:39:15;;;;;;;6.80;1.30;;;7.30;99.90;;;;;;5064592;28;38227;-48
2022/04/07 07:41:42;;;;;;;5.47;0.70;;;7.40;99.90;;;;;;5062694;28;37334;-48
2022/04/07 07:44:11;;;;;;;5.10;1.20;;;7.40;99.90;;;;;;5064453;28;37225;-50
2022/04/07 07:46:39;;;;;;;6.72;0.88;;;7.50;99.90;;;;;;5063277;28;37556;-52
2022/04/07 07:49:09;;;;;;;5.30;1.10;;;7.50;99.90;;;;;;5062993;28;38231;-58
2022/04/07 07:51:39;;;;;;;4.90;0.80;;;7.60;99.90;;;;;;5063156;28;37362;-58
2022/04/07 07:54:06;;;;;;;12.75;1.70;;;7.70;99.90;;;;;;5062272;28;37011;-57
2022/04/07 07:56:36;;;;;;;7.13;1.05;;;7.70;99.90;;;;;;5063025;28;39130;-50
2022/04/07 07:59:04;;;;;;;5.60;0.85;;;7.80;99.90;;;;;;5063589;28;38512;-48
2022/04/07 08:01:32;;;;;;;5.22;1.17;;;8.00;99.90;;;;;;5062733;28;38256;-49
2022/04/07 08:04:00;;;;;;;5.72;1.25;;;8.40;99.90;;;;;;5062757;28;35352;-51
2022/04/07 08:06:29;;;;;;;7.72;1.10;;;8.90;99.90;;;;;;5063334;28;38185;-47
2022/04/07 08:08:56;;;;;;;7.78;1.20;;;9.20;99.90;;;;;;5062718;28;38169;-49
2022/04/07 08:11:27;;;;;;;8.05;1.63;;;9.30;99.90;;;;;;5062232;28;37866;-47
2022/04/07 08:13:54;;;;;;;6.35;1.17;;;9.50;99.90;;;;;;5062840;28;37504;-48
2022/04/07 08:16:22;;;;;;;5.70;1.05;;;10.00;99.90;;;;;;5063687;28;37331;-47
2022/04/07 08:18:53;;;;;;;3.42;0.73;;;10.70;99.90;;;;;;5063362;28;38067;-47
2022/04/07 08:21:20;;;;;;;5.47;1.05;;;11.50;99.10;;;;;;5063436;28;37964;-50
2022/04/07 08:23:48;;;;;;;6.63;1.23;;;12.00;97.00;;;;;;5063049;28;35501;-50
2022/04/07 08:26:16;;;;;;;6.18;0.98;;;12.40;97.30;;;;;;5063590;28;37177;-49
2022/04/07 08:28:44;;;;;;;6.60;1.35;;;12.90;96.20;;;;;;5062674;28;38079;-50
2022/04/07 08:31:11;;;;;;;9.93;1.58;;;13.40;94.90;;;;;;5062981;28;37560;-47
2022/04/07 08:33:39;;;;;;;8.27;1.25;;;13.80;94.70;;;;;;5061472;28;35356;-49
2022/04/07 08:36:07;;;;;;;7.68;1.17;;;14.00;93.30;;;;;;5063475;28;37015;-55
2022/04/07 08:38:35;;;;;;;10.68;1.52;;;13.90;92.70;;;;;;5062938;28;38001;-49
2022/04/07 08:41:02;;;;;;;6.93;1.42;;;13.90;93.40;;;;;;5062392;28;37701;-49
2022/04/07 08:43:32;;;;;;;6.25;1.73;;;13.80;93.10;;;;;;5061636;28;37449;-48
2022/04/07 08:45:59;;;;;;;8.32;1.30;;;13.80;92.90;;;;;;5062044;28;37809;-49
2022/04/07 08:48:27;;;;;;;4.45;1.13;;;13.80;92.80;;;;;;5062284;28;38066;-50
2022/04/07 08:50:56;;;;;;;7.47;1.38;;;13.80;92.60;;;;;;5062819;28;36788;-51
2022/04/07 08:53:25;;;;;;;9.70;1.73;;;13.70;93.40;;;;;;5062717;28;35718;-50
2022/04/07 08:55:52;;;;;;;8.88;1.80;;;13.80;94.10;;;;;;5062733;28;37342;-58
2022/04/07 08:58:20;;;;;;;6.03;1.50;;;13.90;93.50;;;;;;5063116;28;40928;-58
2022/04/07 09:00:49;;;;;;;6.90;1.40;;;13.90;91.70;;;;;;5062417;28;37720;-50
2022/04/07 09:03:16;;;;;;;7.03;1.30;;;13.70;92.60;;;;;;5061418;28;36688;-50
2022/04/07 09:05:54;;;;;;;5.47;1.17;;;13.50;92.30;;;;;;5059756;28;38054;-51
2022/04/07 09:08:29;;;;;;;7.40;1.52;;;13.40;91.60;;;;;;5059738;28;37815;-48
2022/04/07 09:10:59;;;;;;;8.90;1.38;;;13.30;92.40;;;;;;5060747;28;38010;-50
2022/04/07 09:13:30;;;;;;;9.60;1.60;;;13.10;92.60;;;;;;5060847;28;35536;-51
2022/04/07 09:15:58;;;;;;;8.35;1.60;;;13.20;92.90;;;;;;5060934;28;40851;-51
2022/04/07 09:18:26;;;;;;;9.85;1.38;;;13.20;92.20;;;;;;5062163;28;38707;-57
2022/04/07 09:20:53;;;;;;;8.43;1.52;;;13.20;92.80;;;;;;5063529;28;37747;-50
2022/04/07 09:23:21;;;;;;;6.88;1.25;;;13.20;92.50;;;;;;5063328;28;36505;-48
2022/04/07 09:25:50;;;;;;;9.38;1.55;;;13.30;92.50;;;;;;5061608;28;37445;-48
2022/04/07 09:28:29;;;;;;;10.18;1.77;;;13.10;92.00;;;;;;5058019;28;38423;-59
2022/04/07 09:30:58;;;;;;;9.60;1.60;;;13.00;92.30;;;;;;5060624;28;38195;-56
2022/04/07 09:33:26;;;;;;;10.65;2.15;;;13.10;93.00;;;;;;5059352;28;36955;-46
2022/04/07 09:36:05;;;;;;;9.68;1.48;;;13.00;91.70;;;;;;5059561;28;37740;-49
2022/04/07 09:38:34;;;;;;;9.10;1.67;;;12.90;91.20;;;;;;5060773;28;37365;-56
2022/04/07 09:41:09;;;;;;;7.93;1.60;;;12.70;91.70;;;;;;5061499;28;38556;-55
2022/04/07 09:43:46;;;;;;;7.30;1.40;;;12.60;90.40;;;;;;5061889;28;37145;-56
2022/04/07 09:46:14;;;;;;;9.75;1.90;;;12.30;91.20;;;;;;5062424;28;37335;-56
2022/04/07 09:48:59;;;;;;;12.55;2.17;;;12.20;92.10;;;;;;5061965;28;39108;-51
2022/04/07 09:51:27;;;;;;;12.05;2.20;;;12.00;92.70;;;;;;5062222;28;38531;-50
2022/04/07 09:53:56;;;;;;;11.38;1.92;;;11.80;94.30;;;;;;5062439;28;37633;-51
2022/04/07 09:56:30;;;;;;;9.88;1.90;;;11.80;95.40;;;;;;5061869;28;38680;-51
2022/04/07 09:58:58;;;;;;;;;;;11.70;94.60;;;;;;5064124;28;38112;-51
2022/04/07 10:01:29;;;;;;;11.52;1.70;;;11.40;94.50;;;;;;5064571;28;39883;-59
2022/04/07 10:03:59;;;;;;;9.77;1.90;;;11.10;96.00;;;;;;5064456;28;34999;-58
2022/04/07 10:06:27;;;;;;;10.82;2.00;;;10.70;96.40;;;;;;5066126;28;37769;-58
2022/04/07 10:08:54;;;;;;;12.48;2.20;;;10.50;97.20;;;;;;5064523;28;38864;-58
2022/04/07 10:11:22;;;;;;;12.32;2.15;;;10.50;99.30;;;;;;5064912;28;37300;-58
2022/04/07 10:13:50;;;;;;;13.80;3.45;;;11.00;99.90;;;;;;5064615;28;37941;-58
2022/04/07 10:16:19;;;;;;;11.50;2.40;;;11.30;99.40;;;;;;5064156;28;37764;-58
2022/04/07 10:18:50;;;;;;;10.85;2.65;;;11.40;98.30;;;;;;5064816;28;39302;-58
2022/04/07 10:21:39;;;;;;;10.98;3.42;;;11.30;97.50;;;;;;5065394;28;37810;-58
2022/04/07 10:24:28;;;;;;;7.78;1.95;;;11.00;96.70;;;;;;5065042;28;37476;-47
2022/04/07 10:26:58;;;;;;;8.50;2.45;;;10.60;97.60;;;;;;5063468;28;38813;-58
2022/04/07 10:29:26;;;;;;;14.40;3.25;;;10.30;98.20;;;;;;5064738;28;38198;-58
2022/04/07 10:32:21;;;;;;;9.32;2.58;;;10.10;98.50;;;;;;5064668;28;38148;-58
2022/04/07 10:34:57;;;;;;;11.52;2.95;;;9.90;99.90;;;;;;5063814;28;37600;-49
2022/04/07 10:37:40;;;;;;;14.57;3.15;;;10.00;99.90;;;;;;5066138;28;36967;-58
2022/04/07 10:40:34;;;;;;;13.50;3.13;;;10.00;99.90;;;;;;5065263;28;38878;-58
2022/04/07 10:43:19;;;;;;;16.33;2.85;;;10.20;99.90;;;;;;5065434;28;38016;-58
2022/04/07 10:45:48;;;;;;;12.45;3.08;;;10.20;99.90;;;;;;5064639;28;37658;-58
2022/04/07 10:48:25;;;;;;;14.02;4.53;;;10.20;99.90;;;;;;5065594;28;38339;-47
2022/04/07 10:50:55;;;;;;;15.95;3.22;;;10.10;99.90;;;;;;5064831;28;39390;-49
2022/04/07 10:53:26;;;;;;;13.38;2.08;;;10.00;99.90;;;;;;5065558;28;40677;-49
2022/04/07 10:55:59;;;;;;;11.00;2.95;;;9.80;99.90;;;;;;5063945;28;38290;-47
2022/04/07 10:58:46;;;;;;;11.50;2.28;;;9.80;99.90;;;;;;5065285;28;37493;-48
2022/04/07 11:01:51;;;;;;;12.32;2.95;;;9.80;99.90;;;;;;5064017;28;37030;-52
2022/04/07 11:04:39;;;;;;;13.13;2.85;;;9.80;99.90;;;;;;5060946;28;36684;-58
2022/04/07 11:07:18;;;;;;;17.20;3.58;;;9.90;99.90;;;;;;5064282;28;36732;-57
2022/04/07 11:09:47;;;;;;;13.70;2.85;;;9.90;99.90;;;;;;5063148;28;37748;-58
2022/04/07 11:12:18;;;;;;;17.08;3.20;;;10.00;99.90;;;;;;5062925;28;37956;-58
2022/04/07 11:14:47;;;;;;;15.00;3.58;;;10.10;99.90;;;;;;5063789;28;38540;-49
2022/04/07 11:17:22;;;;;;;18.98;4.47;;;10.20;99.90;;;;;;5063625;28;36488;-47
2022/04/07 11:20:04;;;;;;;11.20;3.17;;;10.30;99.90;;;;;;5062465;28;38056;-57
2022/04/07 11:22:51;;;;;;;12.35;2.30;;;10.30;99.90;;;;;;5062583;28;37873;-57
2022/04/07 11:25:24;;;;;;;16.75;3.13;;;10.50;99.90;;;;;;5062715;28;38360;-50
2022/04/07 11:28:10;;;;;;;11.35;2.78;;;10.60;99.90;;;;;;5063649;28;36207;-48
2022/04/07 11:30:43;;;;;;;16.88;3.42;;;10.60;99.10;;;;;;5061753;28;38606;-48
2022/04/07 11:33:41;;;;;;;15.05;2.80;;;10.60;99.50;;;;;;5063283;28;38227;-58
2022/04/07 11:36:33;;;;;;;19.77;3.67;;;10.60;99.10;;;;;;5065377;28;38394;-48
2022/04/07 11:39:04;;;;;;;12.15;3.00;;;10.60;98.40;;;;;;5062770;28;36976;-57
2022/04/07 11:41:41;;;;;;;13.48;2.97;;;10.50;98.50;;;;;;5060768;28;35549;-58
2022/04/07 11:44:11;;;;;;;14.48;2.45;;;10.50;98.80;;;;;;5061464;28;36818;-58
2022/04/07 11:46:41;;;;;;;13.13;2.53;;;10.40;98.00;;;;;;5061627;28;37722;-47
2022/04/07 11:49:09;;;;;;;14.30;2.58;;;10.40;96.90;;;;;;5061878;28;36068;-50
2022/04/07 11:51:39;;;;;;;52.00;20.63;;;10.40;96.20;;;;;;5061776;28;38805;-47
2022/04/07 11:54:07;;;;;;;22.23;7.57;;;10.40;95.40;;;;;;5063284;28;39013;-50
2022/04/07 11:56:37;;;;;;;17.75;6.25;;;10.50;95.90;;;;;;5060688;28;38452;-51
2022/04/07 11:59:06;;;;;;;12.75;4.25;;;10.60;96.00;;;;;;5062003;28;35535;-48
2022/04/07 12:01:38;;;;;;;14.07;3.00;;;10.70;95.90;;;;;;5060842;28;38205;-47
2022/04/07 12:04:09;;;;;;;7.20;2.00;;;10.80;95.90;;;;;;5061879;28;37736;-51
2022/04/07 12:06:40;;;;;;;15.30;3.20;;;11.10;96.60;;;;;;5061557;28;38874;-47
2022/04/07 12:09:10;;;;;;;12.10;2.72;;;11.40;95.60;;;;;;5062832;28;37608;-46
2022/04/07 12:11:39;;;;;;;10.60;2.88;;;11.60;94.90;;;;;;5061940;28;37328;-50
2022/04/07 12:14:09;;;;;;;10.32;2.03;;;11.80;94.40;;;;;;5063198;28;38036;-48
2022/04/07 12:16:46;;;;;;;11.10;2.25;;;11.90;93.10;;;;;;5062563;28;38008;-47
2022/04/07 12:19:14;;;;;;;14.50;3.40;;;11.80;92.40;;;;;;5060384;28;36627;-48
2022/04/07 12:21:56;;;;;;;9.93;2.55;;;11.80;91.80;;;;;;5061520;28;37679;-48
2022/04/07 12:24:25;;;;;;;8.87;2.07;;;11.50;88.30;;;;;;5061680;28;38395;-48
2022/04/07 12:26:54;;;;;;;13.43;2.45;;;11.30;91.40;;;;;;5062230;28;38981;-47
2022/04/07 12:29:23;;;;;;;13.65;2.00;;;11.00;93.20;;;;;;5062772;28;35431;-47
2022/04/07 12:32:03;;;;;;;9.13;2.33;;;10.40;95.30;;;;;;5062914;28;37649;-48
2022/04/07 12:34:34;;;;;;;4.97;1.48;;;9.70;96.80;;;;;;5059812;28;37208;-46
2022/04/07 12:37:03;;;;;;;9.27;1.95;;;9.20;97.80;;;;;;5062142;28;37996;-57
2022/04/07 12:39:34;;;;;;;6.78;1.40;;;8.90;98.40;;;;;;5062292;28;36350;-46
2022/04/07 12:42:08;;;;;;;7.95;2.42;;;8.90;99.90;;;;;;5060596;28;38497;-47
2022/04/07 12:44:39;;;;;;;;;;;9.10;99.90;;;;;;5063357;28;38612;-51
2022/04/07 12:47:18;;;;;;;12.10;2.80;;;9.40;99.90;;;;;;5062085;28;38103;-50
2022/04/07 12:49:56;;;;;;;9.35;2.97;;;9.50;99.90;;;;;;5058041;28;37175;-46
2022/04/07 12:52:40;;;;;;;10.40;2.17;;;9.80;99.90;;;;;;5059119;28;39873;-50
2022/04/07 12:55:10;;;;;;;;;;;9.90;99.90;;;;;;5059492;28;39753;-51
2022/04/07 12:57:41;;;;;;;9.13;1.98;;;9.80;99.90;;;;;;5060372;28;37673;-58
2022/04/07 13:00:12;;;;;;;11.05;2.53;;;9.80;99.90;;;;;;5060307;28;36170;-57
2022/04/07 13:02:46;;;;;;;9.35;1.90;;;9.70;99.90;;;;;;5062281;28;37781;-58